Time;durP1;ratioP1;P1;durP2;ratioP2;P2;SDS_P1;SDS_P2;PMS_P1;PMS_P2;Temp;Humidity;BMP_temperature;BMP_pressure;BME280_temperature;BME280_humidity;BME280_pressure;Samples;Min_cycle;Max_cycle;Signal;HPM_P1;HPM_P2
2023/02/27 00:01:08;;;;;;;30.40;9.38;;;;;;;9.34;47.98;92945.38;5029962;28;20063;-77
2023/02/27 00:03:33;;;;;;;27.80;9.05;;;;;;;9.43;47.95;92954.06;5031000;28;20039;-75
2023/02/27 00:05:59;;;;;;;24.70;8.77;;;;;;;10.10;47.27;92968.84;5031154;28;20021;-76
2023/02/27 00:08:24;;;;;;;21.55;8.40;;;;;;;10.33;45.70;92927.47;5029003;28;20022;-78
2023/02/27 00:10:49;;;;;;;28.88;9.43;;;;;;;10.65;45.45;92975.56;5035701;28;20079;-77
2023/02/27 00:13:15;;;;;;;33.80;10.65;;;;;;;10.87;44.98;92967.13;5028616;28;20046;-79
2023/02/27 00:15:44;;;;;;;30.80;11.50;;;;;;;10.80;45.63;92980.22;5029564;28;20515;-77
2023/02/27 00:18:10;;;;;;;28.27;11.18;;;;;;;10.77;45.37;92972.13;5028013;28;20209;-80
2023/02/27 00:20:36;;;;;;;29.77;9.82;;;;;;;10.78;45.48;92971.78;5030491;28;20659;-78
2023/02/27 00:23:04;;;;;;;25.35;8.55;;;;;;;11.15;44.87;92978.59;5043948;28;20038;-78
2023/02/27 00:25:30;;;;;;;36.03;10.90;;;;;;;10.93;44.62;92927.78;5030607;28;20619;-78
2023/02/27 00:27:56;;;;;;;24.42;10.00;;;;;;;10.37;46.39;92969.38;5025351;28;20049;-79
2023/02/27 00:30:21;;;;;;;28.73;9.63;;;;;;;10.77;45.34;92950.84;5028426;28;20031;-78
2023/02/27 00:32:47;;;;;;;19.95;9.80;;;;;;;11.08;44.84;92962.44;5023510;28;20049;-78
2023/02/27 00:35:12;;;;;;;28.38;8.10;;;;;;;10.45;46.64;92984.44;5031081;28;21069;-77
2023/02/27 00:37:38;;;;;;;30.02;8.65;;;;;;;10.36;46.75;92957.16;5028879;28;20048;-77
2023/02/27 00:40:05;;;;;;;20.27;7.93;;;;;;;10.06;47.91;92954.69;5031865;28;20060;-78
2023/02/27 00:42:31;;;;;;;27.23;6.53;;;;;;;9.95;48.78;92937.63;5032762;28;20032;-77
2023/02/27 00:44:56;;;;;;;40.95;7.93;;;;;;;10.17;47.48;92953.13;5033933;28;20047;-78
2023/02/27 00:47:21;;;;;;;32.00;6.88;;;;;;;9.89;48.42;92938.94;5040429;28;20065;-77
2023/02/27 00:49:47;;;;;;;29.58;6.32;;;;;;;10.10;48.34;92936.97;5034203;28;20571;-77
2023/02/27 00:52:12;;;;;;;27.85;5.50;;;;;;;10.16;48.07;92933.00;5035815;28;20588;-78
2023/02/27 00:54:38;;;;;;;20.13;5.60;;;;;;;10.40;47.68;92955.41;5037080;28;20032;-78
2023/02/27 00:57:03;;;;;;;29.77;6.35;;;;;;;10.39;47.16;92951.19;5036521;28;20714;-79
2023/02/27 00:59:29;;;;;;;26.92;5.20;;;;;;;10.50;46.86;92957.63;5036128;28;20794;-78
2023/02/27 01:01:54;;;;;;;22.00;5.88;;;;;;;10.32;46.54;92915.28;5036281;28;20036;-78
2023/02/27 01:04:20;;;;;;;42.67;7.82;;;;;;;10.67;45.83;92942.22;5034342;28;20037;-78
2023/02/27 01:06:45;;;;;;;35.13;7.40;;;;;;;10.87;45.28;92923.78;5032353;28;20075;-78
2023/02/27 01:09:10;;;;;;;33.75;8.20;;;;;;;11.03;45.94;92970.66;5037178;28;20020;-78
2023/02/27 01:11:36;;;;;;;25.88;6.93;;;;;;;10.93;46.10;92971.09;5034190;28;20043;-78
2023/02/27 01:14:03;;;;;;;35.63;7.47;;;;;;;11.09;45.73;92971.19;5036048;28;20036;-77
2023/02/27 01:16:29;;;;;;;30.00;7.88;;;;;;;11.13;45.38;92945.47;5036801;28;20041;-78
2023/02/27 01:18:54;;;;;;;34.53;7.47;;;;;;;11.38;45.24;92954.16;5037565;28;20037;-78
2023/02/27 01:21:20;;;;;;;23.23;6.78;;;;;;;11.43;44.88;92951.25;5035600;28;20047;-78
2023/02/27 01:23:46;;;;;;;31.90;8.45;;;;;;;11.39;44.40;92958.38;5042267;28;20048;-78
2023/02/27 01:26:11;;;;;;;30.73;9.20;;;;;;;11.20;45.00;92968.84;5032380;28;20550;-78
2023/02/27 01:28:37;;;;;;;35.08;10.98;;;;;;;10.96;45.06;92954.47;5033164;28;20154;-79
2023/02/27 01:31:02;;;;;;;27.75;10.50;;;;;;;11.54;44.60;92974.41;5035532;28;20067;-79
2023/02/27 01:33:27;;;;;;;28.77;9.90;;;;;;;11.79;43.69;92980.41;5035566;28;20025;-78
2023/02/27 01:35:53;;;;;;;36.00;11.52;;;;;;;11.80;43.45;92943.91;5030606;28;20034;-78
2023/02/27 01:38:18;;;;;;;33.90;11.27;;;;;;;11.87;43.29;92987.50;5039654;28;20134;-78
2023/02/27 01:40:44;;;;;;;31.35;10.95;;;;;;;12.15;43.75;92997.34;5032060;28;20037;-78
2023/02/27 01:43:19;;;;;;;35.13;11.40;;;;;;;11.70;43.18;92963.03;5038679;28;20040;-79
2023/02/27 01:45:47;;;;;;;29.95;10.40;;;;;;;11.98;43.33;93020.50;5042194;28;20629;-77
2023/02/27 01:48:22;;;;;;;31.55;10.43;;;;;;;12.11;43.25;93037.22;5042062;28;20111;-76
2023/02/27 01:51:01;;;;;;;29.80;9.52;;;;;;;11.23;44.21;93021.41;5046267;28;20152;-77
2023/02/27 01:53:36;;;;;;;23.40;10.32;;;;;;;11.16;45.16;93035.25;5038570;28;20034;-77
2023/02/27 01:56:23;;;;;;;;;;;;;;;11.60;44.44;93028.22;5040797;28;20136;-78
2023/02/27 01:58:52;;;;;;;27.33;10.30;;;;;;;11.40;44.89;93037.88;5035468;28;19931;-78
2023/02/27 02:01:19;;;;;;;34.55;11.30;;;;;;;11.82;43.88;93040.25;5040261;28;20044;-78
2023/02/27 02:03:51;;;;;;;32.08;10.75;;;;;;;11.74;43.69;93025.16;5039573;28;20031;-78
2023/02/27 02:06:17;;;;;;;26.92;10.70;;;;;;;11.79;44.32;93063.00;5042871;28;20059;-78
2023/02/27 02:08:45;;;;;;;28.48;11.00;;;;;;;11.91;44.32;93070.97;5036409;28;20060;-77
2023/02/27 02:11:17;;;;;;;31.40;11.07;;;;;;;12.13;44.44;93090.19;5038300;28;20038;-76
2023/02/27 02:13:43;;;;;;;32.35;11.45;;;;;;;11.95;44.93;93058.50;5038218;28;20029;-78
2023/02/27 02:16:35;;;;;;;36.47;12.15;;;;;;;11.76;47.25;93086.88;5039523;28;20599;-77
2023/02/27 02:19:16;;;;;;;31.50;11.50;;;;;;;11.69;51.01;93159.34;5038449;28;20555;-77
2023/02/27 02:21:44;;;;;;;26.38;11.85;;;;;;;11.30;53.69;93226.56;5040332;28;20127;-77
2023/02/27 02:24:30;;;;;;;30.35;10.60;;;;;;;10.52;57.19;93242.53;5037224;28;20036;-79
2023/02/27 02:27:12;;;;;;;11.27;3.47;;;;;;;10.28;57.37;93216.56;5033554;28;20175;-77
2023/02/27 02:30:21;;;;;;;6.00;1.50;;;;;;;9.85;56.43;93220.31;5040319;28;20040;-78
2023/02/27 02:33:23;;;;;;;4.88;1.23;;;;;;;9.99;57.16;93214.75;5040357;28;20425;-78
2023/02/27 02:36:10;;;;;;;2.33;1.13;;;;;;;10.06;58.24;93183.16;5040318;28;20600;-78
2023/02/27 02:39:07;;;;;;;1.92;0.95;;;;;;;9.16;61.18;93188.03;5055303;28;20124;-77
2023/02/27 02:42:08;;;;;;;1.10;0.80;;;;;;;9.11;62.20;93204.13;5041212;28;20041;-77
2023/02/27 02:44:46;;;;;;;7.35;1.17;;;;;;;9.11;62.83;93195.38;5039914;28;20041;-79
2023/02/27 02:47:20;;;;;;;3.60;1.17;;;;;;;8.87;65.95;93207.31;5043465;28;20036;-76
2023/02/27 02:49:56;;;;;;;6.25;2.08;;;;;;;8.57;65.01;93221.56;5049416;28;20070;-77
2023/02/27 02:52:40;;;;;;;2.38;1.58;;;;;;;8.73;63.58;93219.19;5042954;28;20037;-78
2023/02/27 02:55:11;;;;;;;1.77;1.00;;;;;;;8.50;64.51;93222.06;5054085;28;20546;-78
2023/02/27 02:57:43;;;;;;;2.25;1.23;;;;;;;8.63;64.87;93230.91;5036110;28;20037;-78
2023/02/27 03:00:19;;;;;;;1.33;1.23;;;;;;;8.49;65.61;93214.41;5053697;28;20654;-77
2023/02/27 03:02:51;;;;;;;5.15;1.73;;;;;;;8.10;65.78;93199.47;5040789;28;20036;-78
2023/02/27 03:05:39;;;;;;;3.20;0.98;;;;;;;8.64;66.99;93266.94;5053589;28;20040;-78
2023/02/27 03:08:13;;;;;;;3.72;0.90;;;;;;;7.85;65.89;93230.13;5038921;28;20098;-77
2023/02/27 03:10:47;;;;;;;6.15;2.17;;;;;;;7.43;71.23;93270.50;5034058;28;20385;-76
2023/02/27 03:13:22;;;;;;;6.50;2.40;;;;;;;6.88;74.09;93296.50;5041438;28;20040;-78
2023/02/27 03:15:55;;;;;;;8.23;2.50;;;;;;;7.61;71.84;93282.69;5038709;28;20047;-78
2023/02/27 03:18:28;;;;;;;3.85;2.28;;;;;;;8.15;70.28;93297.31;5038172;28;20030;-78
2023/02/27 03:21:00;;;;;;;4.80;2.50;;;;;;;8.34;69.35;93292.50;5037487;28;20080;-78
2023/02/27 03:23:36;;;;;;;5.32;3.20;;;;;;;8.63;67.60;93299.06;5039096;28;20511;-77
2023/02/27 03:26:03;;;;;;;8.30;4.25;;;;;;;8.57;66.22;93312.47;5035905;28;20491;-78
2023/02/27 03:28:33;;;;;;;6.10;4.57;;;;;;;8.34;65.28;93319.00;5041827;28;20028;-77
2023/02/27 03:31:07;;;;;;;12.32;6.00;;;;;;;8.23;63.36;93346.88;5039263;28;20100;-77
2023/02/27 03:33:42;;;;;;;8.65;5.78;;;;;;;8.30;62.44;93331.31;5038312;28;20061;-77
2023/02/27 03:36:10;;;;;;;9.88;5.88;;;;;;;8.40;60.60;93360.16;5041162;28;20029;-78
2023/02/27 03:38:38;;;;;;;11.15;5.53;;;;;;;7.76;61.33;93329.94;5038543;28;20147;-79
2023/02/27 03:41:34;;;;;;;10.93;6.50;;;;;;;7.57;62.97;93375.16;5033878;28;20037;-77
2023/02/27 03:44:31;;;;;;;8.02;6.00;;;;;;;7.28;63.93;93383.56;5038668;28;20040;-76
2023/02/27 03:46:57;;;;;;;9.05;6.00;;;;;;;6.86;67.25;93395.38;5049189;28;20040;-77
2023/02/27 03:49:23;;;;;;;11.32;6.05;;;;;;;7.21;64.81;93379.75;5042074;28;20539;-77
2023/02/27 03:51:48;;;;;;;11.02;6.43;;;;;;;6.66;67.28;93389.75;5040607;28;20021;-77
2023/02/27 03:54:55;;;;;;;10.50;7.05;;;;;;;6.79;67.94;93399.53;5058535;28;20017;-78
2023/02/27 03:57:21;;;;;;;12.63;6.93;;;;;;;6.75;68.05;93409.88;5036473;28;20531;-76
2023/02/27 03:59:47;;;;;;;8.80;6.30;;;;;;;7.27;66.50;93394.41;5035156;28;20087;-78
2023/02/27 04:02:12;;;;;;;13.95;6.22;;;;;;;7.53;65.40;93400.63;5036446;28;20132;-77
2023/02/27 04:04:39;;;;;;;9.02;6.00;;;;;;;7.87;64.31;93421.25;5034843;28;20029;-79
2023/02/27 04:07:23;;;;;;;8.27;5.30;;;;;;;7.66;65.40;93402.44;5034547;28;20053;-77
2023/02/27 04:10:16;;;;;;;7.70;5.23;;;;;;;8.02;63.18;93415.50;5037956;28;20029;-77
2023/02/27 04:13:00;;;;;;;15.93;8.00;;;;;;;7.78;63.14;93415.09;5032301;28;20285;-78
2023/02/27 04:16:18;;;;;;;13.02;7.03;;;;;;;6.23;69.80;93418.41;5038436;28;20086;-77
2023/02/27 04:19:20;;;;;;;9.30;5.65;;;;;;;5.94;70.78;93435.31;5034856;28;20044;-78
2023/02/27 04:22:00;;;;;;;10.43;5.13;;;;;;;6.46;69.34;93432.50;5034143;28;20084;-77
2023/02/27 04:24:35;;;;;;;11.52;5.88;;;;;;;6.58;68.65;93454.66;5036275;28;20025;-79
2023/02/27 04:27:34;;;;;;;14.10;6.43;;;;;;;6.83;66.57;93406.56;5035666;28;20040;-78
2023/02/27 04:30:38;;;;;;;10.52;4.93;;;;;;;7.15;65.74;93442.56;5031285;28;20040;-80
2023/02/27 04:33:21;;;;;;;10.30;5.35;;;;;;;7.45;64.00;93433.13;4995048;28;20406;-79
2023/02/27 04:35:55;;;;;;;8.23;5.13;;;;;;;7.70;63.64;93468.75;5030688;28;20033;-77
2023/02/27 04:38:33;;;;;;;8.82;5.05;;;;;;;7.88;62.49;93477.59;5035746;28;20026;-76
2023/02/27 04:41:20;;;;;;;9.95;5.30;;;;;;;7.17;63.56;93485.38;5047453;28;20037;-78
2023/02/27 04:43:47;;;;;;;11.63;5.65;;;;;;;7.73;62.53;93508.66;5035780;28;20056;-75
2023/02/27 04:46:15;;;;;;;9.77;5.90;;;;;;;7.45;62.45;93495.84;5034212;28;20033;-79
2023/02/27 04:48:50;;;;;;;8.70;5.78;;;;;;;7.57;62.70;93490.78;5031907;28;20025;-77
2023/02/27 04:51:23;;;;;;;8.82;5.22;;;;;;;7.62;63.25;93517.94;5033453;28;20958;-78
2023/02/27 04:54:03;;;;;;;10.00;6.40;;;;;;;7.66;63.20;93516.25;5040509;28;20052;-78
2023/02/27 04:56:38;;;;;;;6.60;5.18;;;;;;;7.84;61.60;93519.00;5042353;28;20029;-77
2023/02/27 04:59:19;;;;;;;7.05;5.00;;;;;;;7.62;60.53;93515.28;5032133;28;20041;-78
2023/02/27 05:01:53;;;;;;;7.70;4.88;;;;;;;6.85;64.74;93525.97;5032046;28;20029;-77
2023/02/27 05:04:21;;;;;;;12.93;5.50;;;;;;;7.36;63.55;93529.38;5050018;28;20064;-78
2023/02/27 05:06:48;;;;;;;9.10;5.85;;;;;;;7.26;62.84;93525.09;5035990;28;20075;-79
2023/02/27 05:09:49;;;;;;;9.32;6.35;;;;;;;7.68;62.06;93545.03;5034203;28;20112;-78
2023/02/27 05:12:43;;;;;;;9.85;6.25;;;;;;;7.53;62.42;93551.47;5026870;28;20525;-79
2023/02/27 05:15:24;;;;;;;11.18;6.07;;;;;;;7.73;61.50;93554.78;5035366;28;20049;-76
2023/02/27 05:17:57;;;;;;;9.23;5.68;;;;;;;7.48;62.29;93548.97;5032537;28;20383;-77
2023/02/27 05:20:25;;;;;;;12.05;6.57;;;;;;;7.66;61.19;93540.06;5040662;28;20144;-79
2023/02/27 05:23:05;;;;;;;8.40;6.35;;;;;;;7.55;61.39;93517.56;5036544;28;20025;-78
2023/02/27 05:25:48;;;;;;;10.13;6.30;;;;;;;7.93;60.68;93568.28;5034497;28;20086;-78
2023/02/27 05:28:22;;;;;;;8.82;6.55;;;;;;;7.88;61.30;93567.63;5039143;28;20037;-79
2023/02/27 05:31:22;;;;;;;9.73;6.28;;;;;;;7.73;60.78;93561.59;5034974;28;20111;-78
2023/02/27 05:33:59;;;;;;;8.70;5.70;;;;;;;7.95;60.65;93584.66;5036891;28;20017;-78
2023/02/27 05:36:38;;;;;;;8.90;4.93;;;;;;;7.67;60.36;93580.53;5038835;28;20029;-78
2023/02/27 05:39:08;;;;;;;8.13;5.55;;;;;;;7.73;61.64;93577.50;5037768;28;20067;-78
2023/02/27 05:41:43;;;;;;;12.30;7.95;;;;;;;7.95;61.38;93591.81;5041021;28;20037;-78
2023/02/27 05:44:17;;;;;;;8.98;6.78;;;;;;;7.91;61.96;93582.94;5040188;28;20038;-77
2023/02/27 05:46:55;;;;;;;9.23;6.25;;;;;;;7.81;62.58;93594.53;5043282;28;20044;-79
2023/02/27 05:49:41;;;;;;;10.38;6.22;;;;;;;8.01;61.37;93587.97;5055965;28;20479;-78
2023/02/27 05:52:10;;;;;;;7.38;5.30;;;;;;;7.88;61.00;93570.28;5041604;28;20038;-77
2023/02/27 05:54:49;;;;;;;12.00;5.40;;;;;;;8.02;60.31;93594.84;5045467;28;20126;-77
2023/02/27 05:57:25;;;;;;;8.48;5.78;;;;;;;7.89;60.38;93582.44;5045239;28;20021;-78
2023/02/27 06:00:01;;;;;;;11.25;6.97;;;;;;;8.06;60.25;93595.81;5038424;28;20171;-77
2023/02/27 06:02:28;;;;;;;7.82;5.55;;;;;;;7.92;60.44;93589.78;5039040;28;20582;-78
2023/02/27 06:04:54;;;;;;;6.15;3.67;;;;;;;7.89;58.00;93595.66;5039057;28;20124;-78
2023/02/27 06:07:19;;;;;;;3.72;2.90;;;;;;;7.82;58.26;93608.56;5042067;28;20570;-78
2023/02/27 06:09:46;;;;;;;5.10;2.65;;;;;;;7.78;57.88;93604.94;5039635;28;20029;-78
2023/02/27 06:12:11;;;;;;;4.38;2.78;;;;;;;7.29;58.61;93609.16;5038989;28;20301;-77
2023/02/27 06:14:37;;;;;;;3.25;2.60;;;;;;;7.37;58.22;93637.56;5037809;28;22252;-78
2023/02/27 06:17:03;;;;;;;4.97;2.70;;;;;;;6.77;60.63;93639.53;5043583;28;20040;-78
2023/02/27 06:19:29;;;;;;;5.18;3.35;;;;;;;7.12;60.84;93638.88;5041526;28;20067;-79
2023/02/27 06:21:54;;;;;;;3.38;2.75;;;;;;;7.05;59.69;93635.81;5039556;28;20049;-78
2023/02/27 06:24:19;;;;;;;5.78;3.00;;;;;;;7.14;58.85;93625.34;5043226;28;20018;-79
2023/02/27 06:26:46;;;;;;;4.85;3.28;;;;;;;7.23;58.28;93626.22;5040222;28;20080;-77
2023/02/27 06:29:11;;;;;;;3.50;2.80;;;;;;;7.39;58.69;93632.75;5040480;28;20033;-78
2023/02/27 06:31:36;;;;;;;4.40;2.58;;;;;;;7.57;57.21;93642.44;5041699;28;20066;-78
2023/02/27 06:34:02;;;;;;;2.88;2.15;;;;;;;7.69;56.38;93645.31;5038173;28;20527;-77
2023/02/27 06:36:28;;;;;;;3.38;2.47;;;;;;;7.57;56.62;93639.00;5043409;28;20032;-77
2023/02/27 06:38:54;;;;;;;3.95;2.70;;;;;;;7.61;55.85;93638.09;5041339;28;20059;-78
2023/02/27 06:41:20;;;;;;;4.50;2.58;;;;;;;7.22;57.49;93622.00;5040280;28;20040;-77
2023/02/27 06:43:45;;;;;;;5.78;2.88;;;;;;;7.41;58.16;93653.63;5039745;28;20037;-78
2023/02/27 06:46:11;;;;;;;4.32;2.42;;;;;;;7.48;57.58;93638.16;5038673;28;20097;-78
2023/02/27 06:48:36;;;;;;;6.65;3.30;;;;;;;7.22;57.48;93656.41;5038354;28;20021;-78
2023/02/27 06:51:02;;;;;;;5.03;2.45;;;;;;;6.81;58.87;93653.75;5045004;28;20028;-77
2023/02/27 06:53:28;;;;;;;4.30;3.10;;;;;;;6.14;62.11;93679.69;5039291;28;20036;-78
2023/02/27 06:55:53;;;;;;;4.78;3.22;;;;;;;6.20;62.62;93677.78;5045294;28;20041;-77
2023/02/27 06:58:19;;;;;;;3.28;2.97;;;;;;;6.82;60.63;93679.88;5061374;28;20034;-78
2023/02/27 07:00:44;;;;;;;4.85;3.25;;;;;;;6.99;60.07;93660.03;5045520;28;20024;-77
2023/02/27 07:03:11;;;;;;;5.43;3.50;;;;;;;7.20;59.65;93667.25;5040824;28;20467;-77
2023/02/27 07:05:36;;;;;;;4.80;2.95;;;;;;;7.34;57.75;93669.88;5043572;28;20949;-78
2023/02/27 07:08:03;;;;;;;3.72;2.92;;;;;;;7.30;56.88;93661.78;5038984;28;20043;-78
2023/02/27 07:10:29;;;;;;;5.38;3.53;;;;;;;7.44;57.02;93632.63;5038669;28;20033;-77
2023/02/27 07:12:54;;;;;;;11.55;3.63;;;;;;;7.36;58.04;93646.56;5037417;28;20067;-77
2023/02/27 07:15:20;;;;;;;5.43;3.53;;;;;;;7.68;58.31;93678.16;5041271;28;20027;-79
2023/02/27 07:17:46;;;;;;;5.10;3.55;;;;;;;7.49;57.34;93660.84;5035272;28;20041;-78
2023/02/27 07:20:14;;;;;;;4.70;3.67;;;;;;;7.43;56.74;93670.00;5034550;28;20191;-76
2023/02/27 07:22:47;;;;;;;5.45;3.45;;;;;;;7.45;57.08;93681.06;5027722;28;20115;-78
2023/02/27 07:25:13;;;;;;;6.05;3.63;;;;;;;7.16;58.83;93684.81;5031466;28;20033;-78
2023/02/27 07:27:38;;;;;;;6.05;3.80;;;;;;;7.40;58.82;93694.38;5034767;28;20412;-78
2023/02/27 07:30:04;;;;;;;4.90;3.40;;;;;;;7.15;57.48;93691.16;5051078;28;20029;-78
2023/02/27 07:32:30;;;;;;;4.28;2.85;;;;;;;7.16;57.25;93684.00;5035508;28;20080;-78
2023/02/27 07:34:55;;;;;;;9.38;3.00;;;;;;;6.89;56.43;93657.56;5034119;28;20068;-76
2023/02/27 07:37:21;;;;;;;4.72;3.03;;;;;;;7.12;56.87;93693.63;5029643;28;20052;-77
2023/02/27 07:39:46;;;;;;;7.35;3.60;;;;;;;7.01;56.68;93674.50;5035760;28;20455;-76
2023/02/27 07:42:12;;;;;;;6.93;4.07;;;;;;;7.36;56.45;93704.00;5034952;28;20018;-77
2023/02/27 07:44:37;;;;;;;7.03;3.28;;;;;;;7.24;57.64;93701.84;5036560;28;20612;-77
2023/02/27 07:47:03;;;;;;;7.80;3.92;;;;;;;7.21;57.18;93707.72;5036059;28;20048;-76
2023/02/27 07:49:29;;;;;;;6.03;3.92;;;;;;;7.30;57.32;93684.78;5035067;28;20094;-76
2023/02/27 07:51:55;;;;;;;8.05;4.05;;;;;;;7.37;56.42;93695.78;5048913;28;20473;-75
2023/02/27 07:54:20;;;;;;;4.53;3.47;;;;;;;7.36;56.28;93694.19;5031163;28;20027;-75
2023/02/27 07:56:45;;;;;;;6.03;3.60;;;;;;;7.26;57.18;93702.34;5033249;28;20037;-76
2023/02/27 07:59:11;;;;;;;7.15;4.38;;;;;;;6.33;60.54;93682.34;5038518;28;20065;-76
2023/02/27 08:01:37;;;;;;;6.72;4.10;;;;;;;6.15;63.27;93705.03;5033124;28;20401;-76
2023/02/27 08:04:06;;;;;;;7.38;4.38;;;;;;;6.42;62.99;93701.72;5034693;28;20761;-74
2023/02/27 08:06:31;;;;;;;10.95;4.93;;;;;;;6.58;62.61;93699.63;5030941;28;20033;-76
2023/02/27 08:08:59;;;;;;;6.82;4.88;;;;;;;6.39;62.50;93660.03;5028256;28;20037;-76
2023/02/27 08:11:25;;;;;;;7.75;4.90;;;;;;;6.28;63.58;93716.75;5028662;28;20041;-76
2023/02/27 08:13:52;;;;;;;10.80;5.53;;;;;;;6.06;65.22;93712.03;5035107;28;20060;-77
2023/02/27 08:16:25;;;;;;;8.73;3.72;;;;;;;5.65;66.49;93727.66;5036975;28;20487;-77
2023/02/27 08:19:02;;;;;;;11.48;4.75;;;;;;;6.23;65.10;93722.09;5029705;28;20032;-76
2023/02/27 08:21:28;;;;;;;7.88;4.68;;;;;;;5.87;65.19;93696.19;5036363;28;20055;-76
2023/02/27 08:23:54;;;;;;;7.97;5.03;;;;;;;6.45;65.01;93695.09;5032623;28;20371;-76
2023/02/27 08:26:21;;;;;;;5.22;4.18;;;;;;;6.66;62.79;93705.00;5029662;28;20055;-77
2023/02/27 08:28:46;;;;;;;6.78;4.32;;;;;;;6.54;63.15;93702.06;5028471;28;20099;-75
2023/02/27 08:31:19;;;;;;;7.47;4.18;;;;;;;6.70;63.00;93682.22;5028944;28;20045;-76
2023/02/27 08:33:47;;;;;;;8.50;4.35;;;;;;;6.42;64.87;93728.13;5028233;28;20033;-74
2023/02/27 08:36:17;;;;;;;8.20;4.38;;;;;;;6.13;66.68;93719.59;5036007;28;20437;-76
2023/02/27 08:38:42;;;;;;;5.50;4.68;;;;;;;5.83;67.17;93666.16;5032414;28;20033;-76
2023/02/27 08:41:23;;;;;;;6.60;3.67;;;;;;;6.82;64.64;93718.75;5029622;28;20037;-75
2023/02/27 08:43:49;;;;;;;6.18;3.85;;;;;;;7.30;63.05;93704.09;5011880;28;20037;-75
2023/02/27 08:46:18;;;;;;;4.78;3.45;;;;;;;7.43;61.78;93710.47;5028718;28;21002;-76
2023/02/27 08:48:44;;;;;;;10.30;3.88;;;;;;;7.03;63.67;93700.66;5029407;28;20575;-75
2023/02/27 08:51:10;;;;;;;7.15;4.25;;;;;;;7.47;62.24;93722.03;5031781;28;20353;-75
2023/02/27 08:53:35;;;;;;;4.53;3.90;;;;;;;7.73;60.01;93688.69;5036390;28;20088;-76
2023/02/27 08:56:00;;;;;;;5.70;3.97;;;;;;;7.51;60.81;93723.00;5039188;28;20081;-75
2023/02/27 08:58:30;;;;;;;8.65;4.97;;;;;;;6.82;62.88;93716.91;5037138;28;20049;-78
2023/02/27 09:00:55;;;;;;;9.95;4.10;;;;;;;7.05;63.16;93738.16;5036150;28;20047;-75
2023/02/27 09:03:21;;;;;;;6.63;4.40;;;;;;;6.73;64.65;93737.16;5033689;28;20033;-75
2023/02/27 09:05:48;;;;;;;4.22;3.53;;;;;;;6.45;65.72;93735.50;5051562;28;20792;-75
2023/02/27 09:08:14;;;;;;;4.38;3.30;;;;;;;6.65;64.44;93751.00;5035242;28;20609;-75
2023/02/27 09:10:40;;;;;;;5.20;4.20;;;;;;;6.64;64.70;93751.31;5037467;28;20410;-76
2023/02/27 09:13:06;;;;;;;5.28;3.85;;;;;;;6.62;63.73;93727.03;5039389;28;20695;-77
2023/02/27 09:15:34;;;;;;;4.80;3.85;;;;;;;7.09;62.26;93737.28;5038393;28;20037;-76
2023/02/27 09:18:01;;;;;;;6.03;3.10;;;;;;;6.96;62.23;93764.50;5036540;28;20040;-76
2023/02/27 09:20:30;;;;;;;5.40;3.67;;;;;;;6.30;65.18;93748.94;5035682;28;20094;-76
2023/02/27 09:22:57;;;;;;;6.55;4.20;;;;;;;6.46;65.12;93744.97;5036785;28;20527;-75
2023/02/27 09:25:23;;;;;;;5.75;4.97;;;;;;;6.96;63.47;93748.63;5035268;28;20353;-75
2023/02/27 09:27:48;;;;;;;9.10;4.40;;;;;;;6.89;63.27;93763.31;5033057;28;20487;-78
2023/02/27 09:30:15;;;;;;;13.23;6.03;;;;;;;6.85;63.19;93768.38;5033816;28;20017;-74
2023/02/27 09:32:41;;;;;;;7.25;6.32;;;;;;;6.39;64.35;93747.22;5035338;28;20135;-74
2023/02/27 09:35:08;;;;;;;6.70;5.32;;;;;;;6.76;64.37;93760.34;5035368;28;20583;-75
2023/02/27 09:37:35;;;;;;;7.95;6.07;;;;;;;6.74;63.43;93756.44;5037371;28;20148;-75
2023/02/27 09:40:07;;;;;;;9.73;5.90;;;;;;;7.03;62.08;93749.06;5028476;28;20374;-75
2023/02/27 09:42:44;;;;;;;9.25;5.80;;;;;;;7.45;60.45;93718.09;5014973;28;20036;-76
2023/02/27 09:45:25;;;;;;;8.93;6.20;;;;;;;7.60;58.88;93766.22;4996151;28;20044;-75
2023/02/27 09:48:16;;;;;;;13.90;6.55;;;;;;;7.01;60.93;93766.28;5029667;28;20124;-76
2023/02/27 09:50:46;;;;;;;9.95;6.63;;;;;;;7.20;60.75;93765.13;5023716;28;20116;-74
2023/02/27 09:53:25;;;;;;;7.97;6.05;;;;;;;7.72;58.97;93773.69;5027209;28;20028;-75
2023/02/27 09:55:55;;;;;;;8.85;6.20;;;;;;;7.56;60.05;93762.59;5030166;28;20075;-74
2023/02/27 09:58:43;;;;;;;7.75;6.65;;;;;;;7.71;60.60;93794.06;5031554;28;20064;-75
2023/02/27 10:01:38;;;;;;;10.27;7.13;;;;;;;7.68;60.97;93784.03;5042555;28;20037;-74
2023/02/27 10:04:10;;;;;;;10.93;7.15;;;;;;;7.37;61.97;93795.53;5010487;28;20081;-74
2023/02/27 10:06:44;;;;;;;8.93;7.53;;;;;;;7.60;61.42;93787.41;5029234;28;20072;-75
2023/02/27 10:09:21;;;;;;;8.60;7.75;;;;;;;7.58;61.71;93786.88;5030926;28;20036;-74
2023/02/27 10:12:12;;;;;;;7.95;7.15;;;;;;;8.22;60.15;93800.97;5033298;28;20040;-74
2023/02/27 10:15:06;;;;;;;14.30;7.40;;;;;;;7.14;62.77;93791.97;5025050;28;20084;-75
2023/02/27 10:17:54;;;;;;;8.93;7.35;;;;;;;7.27;61.51;93797.28;5041231;28;20434;-75
2023/02/27 10:20:50;;;;;;;11.82;7.38;;;;;;;7.17;61.55;93799.31;5027397;28;20072;-75
2023/02/27 10:23:20;;;;;;;10.50;7.32;;;;;;;7.62;60.78;93787.91;5031355;28;20566;-74
2023/02/27 10:25:52;;;;;;;11.68;7.43;;;;;;;7.51;60.64;93781.22;5023203;28;21009;-74
2023/02/27 10:28:20;;;;;;;10.55;8.05;;;;;;;7.86;60.94;93771.81;5026040;28;20052;-75
2023/02/27 10:30:55;;;;;;;13.80;7.00;;;;;;;8.22;58.09;93781.66;5030248;28;20740;-74
2023/02/27 10:33:41;;;;;;;10.23;8.38;;;;;;;8.51;58.78;93782.81;5030089;28;20024;-75
2023/02/27 10:36:18;;;;;;;8.60;6.70;;;;;;;8.52;57.74;93763.19;5011688;28;20044;-74
2023/02/27 10:38:51;;;;;;;16.17;7.68;;;;;;;7.90;59.65;93780.72;5020765;28;20051;-76
2023/02/27 10:41:22;;;;;;;16.73;7.95;;;;;;;8.32;59.37;93779.56;5042851;28;20118;-76
2023/02/27 10:43:48;;;;;;;11.40;7.95;;;;;;;8.07;58.65;93772.19;5027052;28;20813;-77
2023/02/27 10:46:29;;;;;;;14.65;7.93;;;;;;;7.87;60.63;93769.97;5033873;28;20279;-76
2023/02/27 10:48:57;;;;;;;8.85;6.72;;;;;;;8.63;57.21;93781.50;5030632;28;20045;-76
2023/02/27 10:51:33;;;;;;;15.70;8.05;;;;;;;8.70;57.11;93774.72;5032413;28;20112;-76
2023/02/27 10:54:28;;;;;;;13.95;7.97;;;;;;;8.16;57.45;93783.63;5027592;28;20075;-75
2023/02/27 10:56:57;;;;;;;12.65;8.68;;;;;;;7.88;58.34;93768.84;5022944;28;20048;-76
2023/02/27 10:59:28;;;;;;;13.23;8.27;;;;;;;7.78;59.91;93785.75;5027040;28;20048;-75
2023/02/27 11:02:03;;;;;;;13.75;9.00;;;;;;;7.64;59.93;93759.25;5011452;28;20045;-75
2023/02/27 11:04:35;;;;;;;17.60;9.68;;;;;;;8.04;59.46;93776.19;5001397;28;21186;-76
2023/02/27 11:07:20;;;;;;;10.93;8.07;;;;;;;8.27;58.51;93770.94;5020164;28;20061;-76
2023/02/27 11:10:09;;;;;;;14.88;9.30;;;;;;;8.07;60.86;93774.84;5035401;28;20112;-76
2023/02/27 11:12:34;;;;;;;14.52;8.32;;;;;;;8.05;58.43;93742.56;5033402;28;20637;-76
2023/02/27 11:15:15;;;;;;;17.55;9.57;;;;;;;8.25;58.59;93758.00;5033832;28;20048;-75
2023/02/27 11:17:42;;;;;;;15.07;9.77;;;;;;;8.07;59.42;93769.53;5049623;28;20029;-75
2023/02/27 11:20:29;;;;;;;12.43;8.00;;;;;;;8.89;57.58;93755.97;5035346;28;20053;-75
2023/02/27 11:23:13;;;;;;;18.45;9.35;;;;;;;8.15;57.47;93713.97;5032358;28;20459;-76
2023/02/27 11:25:38;;;;;;;13.82;9.23;;;;;;;8.30;57.98;93757.88;5033873;28;20147;-76
2023/02/27 11:28:22;;;;;;;18.25;9.48;;;;;;;8.39;59.18;93737.53;5032844;28;20391;-74
2023/02/27 11:31:03;;;;;;;13.38;9.73;;;;;;;8.51;57.96;93743.06;5030764;28;20029;-77
2023/02/27 11:33:37;;;;;;;20.27;10.93;;;;;;;9.07;57.92;93735.59;5039034;28;20124;-76
2023/02/27 11:36:06;;;;;;;20.33;10.23;;;;;;;9.07;59.29;93736.38;5033755;28;20160;-75
2023/02/27 11:38:31;;;;;;;18.13;9.68;;;;;;;9.69;57.52;93752.25;5034265;28;20045;-76
2023/02/27 11:40:59;;;;;;;14.95;10.23;;;;;;;9.34;57.89;93746.06;5033949;28;20044;-76
2023/02/27 11:44:00;;;;;;;15.57;10.05;;;;;;;8.66;59.67;93747.22;5035370;28;20037;-75
2023/02/27 11:46:27;;;;;;;15.65;10.30;;;;;;;9.01;58.94;93745.56;4995790;28;20070;-76
2023/02/27 11:49:22;;;;;;;19.80;10.25;;;;;;;9.41;57.89;93755.16;5037015;28;20026;-76
2023/02/27 11:52:16;;;;;;;14.90;10.13;;;;;;;9.27;57.94;93751.81;5017306;28;20586;-74
2023/02/27 11:54:51;;;;;;;19.45;10.57;;;;;;;8.51;58.66;93758.97;5033409;28;20820;-75
2023/02/27 11:57:31;;;;;;;24.25;11.15;;;;;;;8.69;59.50;93751.16;5050286;28;22232;-76
2023/02/27 12:00:05;;;;;;;19.65;11.32;;;;;;;9.20;57.76;93751.47;5031275;28;20044;-76
2023/02/27 12:02:34;;;;;;;18.35;12.13;;;;;;;9.34;57.90;93752.16;5028764;28;20504;-77